Time;durP1;ratioP1;P1;durP2;ratioP2;P2;SDS_P1;SDS_P2;PMS_P1;PMS_P2;Temp;Humidity;BMP_temperature;BMP_pressure;BME280_temperature;BME280_humidity;BME280_pressure;Samples;Min_cycle;Max_cycle;Signal;HPM_P1;HPM_P2
2022/03/03 00:01:54;;;;;;;;;;;-2.10;99.90;;;;;;5047837;28;19921;-70
2022/03/03 00:04:21;;;;;;;;;;;-2.10;99.90;;;;;;5060761;28;20244;-70
2022/03/03 00:06:47;;;;;;;;;;;-2.10;99.90;;;;;;5062286;28;20200;-70
2022/03/03 00:09:14;;;;;;;;;;;-2.10;99.90;;;;;;5053272;28;19943;-70
2022/03/03 00:11:42;;;;;;;;;;;-2.20;99.90;;;;;;5053172;28;19927;-69
2022/03/03 00:14:08;;;;;;;;;;;-2.30;99.90;;;;;;5047288;28;19925;-70
2022/03/03 00:16:35;;;;;;;;;;;-2.30;99.90;;;;;;5060874;28;19932;-70
2022/03/03 00:19:01;;;;;;;;;;;-2.40;99.90;;;;;;5064244;28;19924;-70
2022/03/03 00:21:28;;;;;;;;;;;-2.50;99.90;;;;;;5065073;28;20101;-70
2022/03/03 00:23:55;;;;;;;;;;;-2.50;99.90;;;;;;5052084;28;19921;-69
2022/03/03 00:26:21;;;;;;;;;;;-2.50;99.90;;;;;;5053636;28;19921;-70
2022/03/03 00:28:49;;;;;;;;;;;-2.50;99.90;;;;;;5052452;28;21224;-70
2022/03/03 00:31:16;;;;;;;;;;;-2.40;99.90;;;;;;5050222;28;19927;-69
2022/03/03 00:33:42;;;;;;;;;;;-2.40;99.90;;;;;;5063528;28;19928;-70
2022/03/03 00:36:09;;;;;;;;;;;-2.40;99.90;;;;;;5061251;28;19928;-70
2022/03/03 00:38:36;;;;;;;;;;;-2.40;99.90;;;;;;5055109;28;19927;-70
2022/03/03 00:41:03;;;;;;;;;;;-2.40;99.90;;;;;;5043880;28;19984;-70
2022/03/03 00:43:29;;;;;;;;;;;-2.40;99.90;;;;;;5045310;28;19927;-70
2022/03/03 00:45:57;;;;;;;;;;;-2.40;99.90;;;;;;5043392;28;20113;-70
2022/03/03 00:48:24;;;;;;;;;;;-2.30;99.90;;;;;;5050700;28;19928;-70
2022/03/03 00:50:50;;;;;;;;;;;-2.30;99.90;;;;;;5063466;28;19959;-70
2022/03/03 00:53:17;;;;;;;;;;;-2.40;99.90;;;;;;5053374;28;19920;-70
2022/03/03 00:55:44;;;;;;;;;;;-2.50;99.90;;;;;;5051895;28;19927;-70
2022/03/03 00:58:10;;;;;;;;;;;-2.60;99.90;;;;;;5059153;28;20200;-69
2022/03/03 01:00:37;;;;;;;;;;;-2.70;99.90;;;;;;5053232;28;19921;-70
2022/03/03 01:03:05;;;;;;;;;;;-2.80;99.90;;;;;;5061502;28;19929;-69
2022/03/03 01:05:31;;;;;;;;;;;-2.80;99.90;;;;;;5063181;28;19921;-70
2022/03/03 01:07:58;;;;;;;;;;;-2.80;99.90;;;;;;5048741;28;19922;-70
2022/03/03 01:10:24;;;;;;;;;;;-2.80;99.90;;;;;;5061328;28;20247;-69
2022/03/03 01:12:51;;;;;;;;;;;-2.70;99.90;;;;;;5063616;28;19959;-70
2022/03/03 01:15:18;;;;;;;;;;;-2.80;99.90;;;;;;5062248;28;19993;-70
2022/03/03 01:17:44;;;;;;;;;;;-2.70;99.90;;;;;;5062654;28;19921;-70
2022/03/03 01:20:12;;;;;;;;;;;-2.70;99.90;;;;;;5043346;28;19921;-69
2022/03/03 01:22:39;;;;;;;;;;;-2.70;99.90;;;;;;5043475;28;19995;-70
2022/03/03 01:25:06;;;;;;;;;;;-2.70;99.90;;;;;;5062586;28;19920;-70
2022/03/03 01:27:33;;;;;;;;;;;-2.70;99.90;;;;;;5062712;28;19933;-69
2022/03/03 01:30:01;;;;;;;;;;;-2.80;99.90;;;;;;5044087;28;19922;-70
2022/03/03 01:32:27;;;;;;;;;;;-2.80;99.90;;;;;;5051503;28;19967;-70
2022/03/03 01:34:54;;;;;;;;;;;-2.80;99.90;;;;;;5048509;28;19920;-70
2022/03/03 01:37:22;;;;;;;;;;;-2.80;99.90;;;;;;5062565;28;19927;-70
2022/03/03 01:39:48;;;;;;;;;;;-2.80;99.90;;;;;;5045449;28;19921;-70
2022/03/03 01:42:16;;;;;;;;;;;-2.90;99.90;;;;;;5044208;28;19929;-70
2022/03/03 01:44:43;;;;;;;;;;;-3.00;99.90;;;;;;5059740;28;19927;-70
2022/03/03 01:47:16;;;;;;;;;;;-3.10;99.90;;;;;;5062923;28;19928;-70
2022/03/03 01:49:42;;;;;;;;;;;-3.10;99.90;;;;;;5061160;28;19920;-69
2022/03/03 01:52:09;;;;;;;;;;;-3.10;99.90;;;;;;5065611;28;19925;-70
2022/03/03 01:54:37;;;;;;;;;;;-3.10;99.90;;;;;;5048894;28;19928;-70
2022/03/03 01:57:04;;;;;;;;;;;-3.10;99.90;;;;;;5046886;28;20212;-70
2022/03/03 01:59:31;;;;;;;;;;;-3.00;99.90;;;;;;5062249;28;19921;-70
2022/03/03 02:01:58;;;;;;;;;;;-3.00;99.90;;;;;;5059666;28;20119;-70
2022/03/03 02:04:25;;;;;;;;;;;-2.90;99.90;;;;;;5051976;28;19921;-69
2022/03/03 02:06:51;;;;;;;;;;;-2.90;99.90;;;;;;5051834;28;20208;-69
2022/03/03 02:09:18;;;;;;;;;;;-3.00;99.90;;;;;;5051890;28;20223;-70
2022/03/03 02:11:47;;;;;;;;;;;-2.90;99.90;;;;;;5048183;28;20209;-70
2022/03/03 02:14:14;;;;;;;;;;;-2.90;99.90;;;;;;5046671;28;20251;-70
2022/03/03 02:16:41;;;;;;;;;;;-2.90;99.90;;;;;;5047776;28;19959;-69
2022/03/03 02:19:08;;;;;;;;;;;-2.90;99.90;;;;;;5046811;28;19928;-70
2022/03/03 02:21:35;;;;;;;;;;;-2.90;99.90;;;;;;5060702;28;19925;-70
2022/03/03 02:24:02;;;;;;;;;;;-2.90;99.90;;;;;;5065221;28;20192;-70
2022/03/03 02:26:29;;;;;;;;;;;-2.90;99.90;;;;;;5050097;28;20228;-70
2022/03/03 02:28:55;;;;;;;;;;;-2.90;99.90;;;;;;5057133;28;20239;-69
2022/03/03 02:31:22;;;;;;;;;;;-2.90;99.90;;;;;;5054173;28;19921;-70
2022/03/03 02:33:48;;;;;;;;;;;-2.90;99.90;;;;;;5051920;28;20204;-70
2022/03/03 02:36:18;;;;;;;;;;;-2.90;99.90;;;;;;5058934;28;19944;-70
2022/03/03 02:38:47;;;;;;;;;;;-2.90;99.90;;;;;;5056045;28;19921;-70
2022/03/03 02:41:14;;;;;;;;;;;-2.90;99.90;;;;;;5061796;28;19921;-70
2022/03/03 02:43:40;;;;;;;;;;;-3.00;99.90;;;;;;5065569;28;19921;-70
2022/03/03 02:46:07;;;;;;;;;;;-3.00;99.90;;;;;;5065634;28;20292;-69
2022/03/03 02:48:34;;;;;;;;;;;-3.10;99.90;;;;;;5065633;28;19935;-70
2022/03/03 02:51:01;;;;;;;;;;;-3.10;99.90;;;;;;5054749;28;19920;-70
2022/03/03 02:53:27;;;;;;;;;;;-3.10;99.90;;;;;;5049562;28;19921;-70
2022/03/03 02:55:56;;;;;;;;;;;-3.10;99.90;;;;;;5061037;28;20251;-70
2022/03/03 02:58:22;;;;;;;;;;;-3.10;99.90;;;;;;5045910;28;19921;-70
2022/03/03 03:00:48;;;;;;;;;;;-3.20;99.90;;;;;;5045652;28;19924;-69
2022/03/03 03:03:15;;;;;;;;;;;-3.20;99.90;;;;;;5050361;28;20147;-70
2022/03/03 03:05:42;;;;;;;;;;;-3.20;99.90;;;;;;5053133;28;19928;-70
2022/03/03 03:08:09;;;;;;;;;;;-3.20;99.90;;;;;;5054810;28;19920;-69
2022/03/03 03:10:35;;;;;;;;;;;-3.20;99.90;;;;;;5065123;28;20213;-69
2022/03/03 03:13:04;;;;;;;;;;;-3.10;99.90;;;;;;5065515;28;19927;-70
2022/03/03 03:15:30;;;;;;;;;;;-3.20;99.90;;;;;;5065305;28;19927;-69
2022/03/03 03:18:08;;;;;;;;;;;-3.20;99.90;;;;;;5065387;28;19927;-70
2022/03/03 03:20:34;;;;;;;;;;;-3.20;99.90;;;;;;5047269;28;20152;-69
2022/03/03 03:23:01;;;;;;;;;;;-3.20;99.90;;;;;;5049487;28;19921;-70
2022/03/03 03:25:28;;;;;;;;;;;-3.20;99.90;;;;;;5064804;28;19920;-70
2022/03/03 03:27:54;;;;;;;;;;;-3.20;99.90;;;;;;5047058;28;19921;-70
2022/03/03 03:30:22;;;;;;;;;;;-3.20;99.90;;;;;;5045703;28;19925;-70
2022/03/03 03:32:49;;;;;;;;;;;-3.20;99.90;;;;;;5048290;28;20113;-70
2022/03/03 03:35:15;;;;;;;;;;;-3.30;99.90;;;;;;5058379;28;19921;-69
2022/03/03 03:37:42;;;;;;;;;;;-3.30;99.90;;;;;;5050661;28;19927;-70
2022/03/03 03:40:10;;;;;;;;;;;-3.40;99.90;;;;;;5059167;28;19928;-70
2022/03/03 03:42:36;;;;;;;;;;;-3.40;99.90;;;;;;5045077;28;19928;-70
2022/03/03 03:45:03;;;;;;;;;;;-3.40;99.90;;;;;;5044748;28;20031;-69
2022/03/03 03:47:31;;;;;;;;;;;-3.40;99.90;;;;;;5044874;28;19931;-69
2022/03/03 03:50:02;;;;;;;;;;;-3.40;99.90;;;;;;5061707;28;19920;-69
2022/03/03 03:52:28;;;;;;;;;;;-3.50;99.90;;;;;;5046558;28;20092;-69
2022/03/03 03:54:55;;;;;;;;;;;-3.60;99.90;;;;;;5056566;28;19921;-69
2022/03/03 03:57:21;;;;;;;;;;;-3.60;99.90;;;;;;5044638;28;19921;-69
2022/03/03 03:59:48;;;;;;;;;;;-3.60;99.90;;;;;;5057169;28;19975;-69
2022/03/03 04:02:15;;;;;;;;;;;-3.60;99.90;;;;;;5064624;28;20267;-68
2022/03/03 04:04:43;;;;;;;;;;;-3.60;99.90;;;;;;5049427;28;19936;-69
2022/03/03 04:07:09;;;;;;;;;;;-3.60;99.90;;;;;;5057599;28;19920;-68
2022/03/03 04:09:36;;;;;;;;;;;-3.60;99.90;;;;;;5064443;28;19979;-68
2022/03/03 04:12:03;;;;;;;;;;;-3.50;99.90;;;;;;5058090;28;19921;-69
2022/03/03 04:14:30;;;;;;;;;;;-3.40;99.90;;;;;;5055038;28;20212;-68
2022/03/03 04:16:57;;;;;;;;;;;-3.50;99.90;;;;;;5064068;28;19943;-68
2022/03/03 04:19:24;;;;;;;;;;;-3.50;99.90;;;;;;5062656;28;19928;-68
2022/03/03 04:21:52;;;;;;;;;;;-3.60;99.90;;;;;;5063855;28;19927;-68
2022/03/03 04:24:18;;;;;;;;;;;-3.60;99.90;;;;;;5060280;28;19925;-68
2022/03/03 04:26:45;;;;;;;;;;;-3.60;99.90;;;;;;5055535;28;20109;-69
2022/03/03 04:29:11;;;;;;;;;;;-3.50;99.90;;;;;;5063514;28;19928;-69
2022/03/03 04:31:38;;;;;;;;;;;-3.50;99.90;;;;;;5064309;28;19943;-69
2022/03/03 04:34:05;;;;;;;;;;;-3.50;99.90;;;;;;5054447;28;20227;-69
2022/03/03 04:36:31;;;;;;;;;;;-3.50;99.90;;;;;;5052264;28;19940;-69
2022/03/03 04:38:59;;;;;;;;;;;-3.50;99.90;;;;;;5063202;28;19939;-69
2022/03/03 04:41:26;;;;;;;;;;;-3.60;99.90;;;;;;5049790;28;19921;-68
2022/03/03 04:43:52;;;;;;;;;;;-3.60;99.90;;;;;;5043866;28;20208;-69
2022/03/03 04:46:19;;;;;;;;;;;-3.60;99.90;;;;;;5043650;28;19956;-68
2022/03/03 04:48:45;;;;;;;;;;;-3.50;99.90;;;;;;5060295;28;19921;-69
2022/03/03 04:51:12;;;;;;;;;;;-3.50;99.90;;;;;;5053927;28;19932;-69
2022/03/03 04:53:38;;;;;;;;;;;-3.50;99.90;;;;;;5050404;28;19921;-69
2022/03/03 04:56:07;;;;;;;;;;;-3.50;99.90;;;;;;5048474;28;19936;-69
2022/03/03 04:58:33;;;;;;;;;;;-3.50;99.90;;;;;;5044812;28;19927;-69
2022/03/03 05:01:00;;;;;;;;;;;-3.60;99.90;;;;;;5049344;28;19921;-68
2022/03/03 05:03:26;;;;;;;;;;;-3.60;99.90;;;;;;5062616;28;19927;-68
2022/03/03 05:05:53;;;;;;;;;;;-3.60;99.90;;;;;;5063402;28;19921;-69
2022/03/03 05:08:20;;;;;;;;;;;-3.60;99.90;;;;;;5063478;28;19928;-69
2022/03/03 05:10:46;;;;;;;;;;;-3.60;99.90;;;;;;5061620;28;19920;-69
2022/03/03 05:13:14;;;;;;;;;;;-3.50;99.90;;;;;;5061831;28;19921;-69
2022/03/03 05:15:41;;;;;;;;;;;-3.50;99.90;;;;;;5043042;28;20212;-69
2022/03/03 05:18:07;;;;;;;;;;;-3.60;99.90;;;;;;5049999;28;19920;-69
2022/03/03 05:20:34;;;;;;;;;;;-3.60;99.90;;;;;;5058901;28;20030;-69
2022/03/03 05:23:00;;;;;;;;;;;-3.70;99.90;;;;;;5046919;28;19924;-69
2022/03/03 05:25:27;;;;;;;;;;;-3.70;99.90;;;;;;5061670;28;19920;-69
2022/03/03 05:27:54;;;;;;;;;;;-3.80;99.90;;;;;;5062012;28;19928;-69
2022/03/03 05:30:22;;;;;;;;;;;-3.80;99.90;;;;;;5057178;28;19921;-70
2022/03/03 05:32:49;;;;;;;;;;;-3.80;99.90;;;;;;5059377;28;19927;-69
2022/03/03 05:35:16;;;;;;;;;;;-3.90;99.90;;;;;;5059245;28;19953;-69
2022/03/03 05:37:42;;;;;;;;;;;-3.80;99.90;;;;;;5061233;28;19924;-70
2022/03/03 05:40:10;;;;;;;;;;;-3.80;99.90;;;;;;5051482;22;19921;-67
2022/03/03 05:42:37;;;;;;;;;;;-3.80;99.90;;;;;;5027107;28;20204;-67
2022/03/03 05:45:04;;;;;;;;;;;-3.80;99.90;;;;;;5026420;28;19935;-67
2022/03/03 05:47:32;;;;;;;;;;;-3.70;99.90;;;;;;5023862;28;20204;-67
2022/03/03 05:49:59;;;;;;;;;;;-3.90;99.90;;;;;;5042868;28;20116;-67
2022/03/03 05:52:25;;;;;;;;;;;-4.00;99.90;;;;;;5062712;28;19920;-67
2022/03/03 05:54:52;;;;;;;;;;;-4.10;99.90;;;;;;5051922;28;19943;-67
2022/03/03 05:57:20;;;;;;;;;;;-4.20;99.90;;;;;;5043092;28;19921;-67
2022/03/03 05:59:48;;;;;;;;;;;-4.20;99.90;;;;;;5046034;28;19959;-68
2022/03/03 06:02:15;;;;;;;;;;;-4.20;99.90;;;;;;5056699;28;19927;-68
2022/03/03 06:04:42;;;;;;;;;;;-4.20;99.90;;;;;;5053761;28;20108;-68
2022/03/03 06:07:10;;;;;;;;;;;-4.10;99.90;;;;;;5063120;28;19928;-69
2022/03/03 06:09:37;;;;;;;;;;;-4.00;99.90;;;;;;5054411;28;19921;-67
2022/03/03 06:12:06;;;;;;;;;;;-4.00;99.90;;;;;;5043051;28;20112;-68
2022/03/03 06:14:38;;;;;;;;;;;-3.90;99.90;;;;;;5042725;28;20086;-68
2022/03/03 06:17:04;;;;;;;;;;;-3.80;99.90;;;;;;5043014;28;19956;-68
2022/03/03 06:19:35;;;;;;;;;;;-3.80;99.90;;;;;;5043029;28;19927;-68
2022/03/03 06:22:03;;;;;;;;;;;-3.80;99.90;;;;;;5043063;28;19929;-68
2022/03/03 06:24:30;;;;;;;;;;;-3.80;99.90;;;;;;5048732;28;19928;-68
2022/03/03 06:26:57;;;;;;;;;;;-3.70;99.90;;;;;;5058590;28;19936;-68
2022/03/03 06:29:23;;;;;;;;;;;-3.70;99.90;;;;;;5062757;28;20227;-68
2022/03/03 06:31:50;;;;;;;;;;;-3.70;99.90;;;;;;5046536;28;20212;-68
2022/03/03 06:34:17;;;;;;;;;;;-3.70;99.90;;;;;;5062138;28;19921;-69
2022/03/03 06:36:43;;;;;;;;;;;-3.70;99.90;;;;;;5066671;28;19928;-68
2022/03/03 06:39:11;;;;;;;;;;;-3.70;99.90;;;;;;5066388;28;19920;-68
2022/03/03 06:41:38;;;;;;;;;;;-3.60;99.90;;;;;;5058092;28;20101;-68
2022/03/03 06:44:12;;;;;;;;;;;-3.60;99.90;;;;;;5047585;28;19921;-68
2022/03/03 06:46:39;;;;;;;;;;;-3.60;99.90;;;;;;5059582;28;19925;-68
2022/03/03 06:49:06;;;;;;;;;;;-3.50;99.90;;;;;;5048695;28;19921;-67
2022/03/03 06:51:38;;;;;;;;;;;-3.60;99.90;;;;;;5057154;28;19921;-68
2022/03/03 06:54:06;;;;;;;;;;;-3.70;99.90;;;;;;5046263;28;19944;-68
2022/03/03 06:56:36;;;;;;;;;;;-3.60;99.90;;;;;;5045854;28;19921;-68
2022/03/03 06:59:03;;;;;;;;;;;-3.60;99.90;;;;;;5047922;28;19921;-68
2022/03/03 07:01:30;;;;;;;;;;;-3.50;99.90;;;;;;5053482;28;19927;-67
2022/03/03 07:03:57;;;;;;;;;;;-3.50;99.90;;;;;;5066422;28;19927;-68
2022/03/03 07:06:23;;;;;;;;;;;-3.40;99.90;;;;;;5049960;28;19921;-68
2022/03/03 07:08:50;;;;;;;;;;;-3.40;99.90;;;;;;5046196;28;19921;-68
2022/03/03 07:11:17;;;;;;;;;;;-3.30;99.90;;;;;;5049754;28;19921;-68
2022/03/03 07:13:46;;;;;;;;;;;-3.30;99.90;;;;;;5062674;28;19929;-68
2022/03/03 07:16:21;;;;;;;;;;;-3.20;99.90;;;;;;5062923;28;19921;-68
2022/03/03 07:18:50;;;;;;;;;;;-3.20;99.90;;;;;;5060144;28;19929;-68
2022/03/03 07:21:19;;;;;;;;;;;-3.20;99.90;;;;;;5057618;28;19971;-68
2022/03/03 07:23:48;;;;;;;;;;;-3.20;99.90;;;;;;5065254;28;19927;-68
2022/03/03 07:26:15;;;;;;;;;;;-3.10;99.90;;;;;;5059493;28;19929;-70
2022/03/03 07:28:46;;;;;;;;;;;-3.00;99.90;;;;;;5064440;28;19921;-69
2022/03/03 07:31:17;;;;;;;;;;;-2.90;99.90;;;;;;5063739;28;19933;-69
2022/03/03 07:33:48;;;;;;;;;;;-2.90;99.90;;;;;;5065592;28;20199;-68
2022/03/03 07:36:17;;;;;;;;;;;-2.90;99.90;;;;;;5063803;28;19963;-69
2022/03/03 07:38:51;;;;;;;;;;;-2.90;99.90;;;;;;5061139;28;19980;-68
2022/03/03 07:41:18;;;;;;;;;;;-2.80;99.90;;;;;;5067192;28;20111;-69
2022/03/03 07:43:44;;;;;;;;;;;-2.70;99.90;;;;;;5063404;28;19935;-68
2022/03/03 07:46:11;;;;;;;;;;;-2.60;99.90;;;;;;5062368;28;19921;-67
2022/03/03 07:48:39;;;;;;;;;;;-2.60;99.90;;;;;;5060867;28;19928;-68
2022/03/03 07:51:06;;;;;;;;;;;-2.50;99.90;;;;;;5061057;28;20127;-68
2022/03/03 07:53:33;;;;;;;;;;;-2.50;99.90;;;;;;5060711;28;20112;-68
2022/03/03 07:56:02;;;;;;;;;;;-2.40;99.90;;;;;;5050726;28;19921;-67
2022/03/03 07:58:30;;;;;;;;;;;-2.30;99.90;;;;;;5064559;28;19925;-68
2022/03/03 08:00:59;;;;;;;;;;;-2.20;99.90;;;;;;5066589;28;19920;-69
2022/03/03 08:03:27;;;;;;;;;;;-2.10;99.90;;;;;;5049727;28;20358;-68
2022/03/03 08:05:56;;;;;;;;;;;-2.00;99.90;;;;;;5064532;28;20156;-68
2022/03/03 08:08:25;;;;;;;;;;;-1.90;99.90;;;;;;5064646;28;19928;-68
2022/03/03 08:10:56;;;;;;;;;;;-1.80;99.90;;;;;;5063519;28;19920;-68
2022/03/03 08:13:24;;;;;;;;;;;-1.80;99.90;;;;;;5061252;28;19927;-68
2022/03/03 08:15:50;;;;;;;;;;;-1.70;99.90;;;;;;5057304;28;19921;-67
2022/03/03 08:18:17;;;;;;;;;;;-1.70;99.90;;;;;;5062823;28;20448;-67
2022/03/03 08:20:44;;;;;;;;;;;-1.60;99.90;;;;;;5063824;28;19927;-68
2022/03/03 08:23:11;;;;;;;;;;;-1.50;99.90;;;;;;5045226;28;20122;-68
2022/03/03 08:25:38;;;;;;;;;;;-1.50;99.90;;;;;;5043625;28;19927;-69
2022/03/03 08:28:06;;;;;;;;;;;-1.30;99.90;;;;;;5054041;28;19921;-68
2022/03/03 08:30:34;;;;;;;;;;;-1.20;99.90;;;;;;5059465;28;19927;-68
2022/03/03 08:33:03;;;;;;;;;;;-1.10;99.90;;;;;;5063348;28;19948;-68
2022/03/03 08:35:33;;;;;;;;;;;-1.00;99.90;;;;;;5061346;28;19928;-68
2022/03/03 08:38:03;;;;;;;;;;;-0.90;99.90;;;;;;5063317;28;19921;-68
2022/03/03 08:40:31;;;;;;;;;;;-0.70;99.90;;;;;;5064038;28;19928;-70
2022/03/03 08:42:59;;;;;;;;;;;-0.60;99.90;;;;;;5064319;28;19921;-69
2022/03/03 08:45:28;;;;;;;;;;;-0.40;99.90;;;;;;5054104;28;19921;-70
2022/03/03 08:47:57;;;;;;;;;;;-0.20;99.90;;;;;;5061220;28;19928;-69
2022/03/03 08:50:27;;;;;;;;;;;-0.10;99.90;;;;;;5057768;28;19936;-70
2022/03/03 08:52:54;;;;;;;;;;;0.10;99.90;;;;;;5064241;28;19959;-69
2022/03/03 08:55:20;;;;;;;;;;;0.10;99.90;;;;;;5044233;28;20249;-69
2022/03/03 08:57:48;;;;;;;;;;;0.20;99.90;;;;;;5062598;28;20131;-69
2022/03/03 09:00:15;;;;;;;;;;;0.40;99.90;;;;;;5063535;28;20116;-68
2022/03/03 09:02:42;;;;;;;;;;;0.50;99.90;;;;;;5063279;28;19920;-71
2022/03/03 09:05:09;;;;;;;;;;;0.60;99.90;;;;;;5063388;28;19935;-70
2022/03/03 09:07:35;;;;;;;;;;;0.70;99.90;;;;;;5063076;28;20112;-69
2022/03/03 09:10:02;;;;;;;;;;;0.90;99.90;;;;;;5063046;28;19921;-70
2022/03/03 09:12:29;;;;;;;;;;;1.10;99.90;;;;;;5059948;28;19944;-70
2022/03/03 09:14:57;;;;;;;;;;;1.30;99.90;;;;;;5055154;28;19927;-69
2022/03/03 09:17:23;;;;;;;;;;;1.30;99.90;;;;;;5043125;28;19921;-70
2022/03/03 09:19:50;;;;;;;;;;;1.50;99.90;;;;;;5052914;28;19943;-70
2022/03/03 09:22:16;;;;;;;;;;;1.60;99.90;;;;;;5056699;28;20119;-69
2022/03/03 09:24:43;;;;;;;;;;;1.80;99.90;;;;;;5063274;28;19989;-70
2022/03/03 09:27:10;;;;;;;;;;;2.00;99.90;;;;;;5062345;28;19924;-68
2022/03/03 09:29:36;;;;;;;;;;;2.20;99.90;;;;;;5063227;28;19984;-69
2022/03/03 09:32:05;;;;;;;;;;;2.40;99.90;;;;;;5062708;28;19921;-70
2022/03/03 09:34:32;;;;;;;;;;;2.50;99.90;;;;;;5062585;28;19924;-68
2022/03/03 09:36:59;;;;;;;;;;;2.70;99.90;;;;;;5062063;28;19921;-70
2022/03/03 09:39:26;;;;;;;;;;;2.70;99.90;;;;;;5062981;28;19935;-70
2022/03/03 09:41:53;;;;;;;;;;;2.80;99.90;;;;;;5062677;28;20150;-70
2022/03/03 09:44:20;;;;;;;;;;;3.00;99.90;;;;;;5053847;28;19980;-69
2022/03/03 09:46:47;;;;;;;;;;;3.10;99.90;;;;;;5060602;28;19920;-70
2022/03/03 09:49:15;;;;;;;;;;;3.20;99.90;;;;;;5063004;28;19921;-70
2022/03/03 09:51:42;;;;;;;;;;;3.30;99.90;;;;;;5062309;28;20354;-70
2022/03/03 09:54:09;;;;;;;;;;;3.40;99.90;;;;;;5052001;28;19921;-68
2022/03/03 09:56:36;;;;;;;;;;;3.40;99.90;;;;;;5053320;28;19927;-69
2022/03/03 09:59:03;;;;;;;;;;;3.60;99.90;;;;;;5062770;28;19960;-69
2022/03/03 10:01:30;;;;;;;;;;;3.70;99.90;;;;;;5056944;28;19921;-69
2022/03/03 10:03:58;;;;;;;;;;;3.80;99.90;;;;;;5061258;28;19927;-69
2022/03/03 10:06:26;;;;;;;;;;;3.90;99.90;;;;;;5054949;28;19921;-70
2022/03/03 10:08:52;;;;;;;;;;;4.10;99.90;;;;;;5062117;28;19927;-68
2022/03/03 10:11:19;;;;;;;;;;;4.20;99.90;;;;;;5066612;28;19928;-68
2022/03/03 10:13:46;;;;;;;;;;;4.40;99.90;;;;;;5064667;28;20132;-68
2022/03/03 10:16:19;;;;;;;;;;;4.50;99.90;;;;;;5052855;28;19921;-66
2022/03/03 10:18:50;;;;;;;;;;;4.60;99.90;;;;;;5065716;28;19935;-68
2022/03/03 10:21:17;;;;;;;;;;;4.70;99.90;;;;;;5066624;28;19940;-69
2022/03/03 10:23:46;;;;;;;;;;;4.80;99.90;;;;;;5066839;28;19927;-68
2022/03/03 10:26:12;;;;;;;;;;;4.90;99.90;;;;;;5061806;28;19921;-68
2022/03/03 10:28:39;;;;;;;;;;;5.10;99.90;;;;;;5066254;28;19984;-69
2022/03/03 10:31:06;;;;;;;;;;;5.20;99.90;;;;;;5064914;28;20136;-67
2022/03/03 10:33:34;;;;;;;;;;;5.30;99.90;;;;;;5066374;28;19921;-67
2022/03/03 10:36:02;;;;;;;;;;;5.40;99.90;;;;;;5049744;28;20160;-68
2022/03/03 10:38:29;;;;;;;;;;;5.50;99.90;;;;;;5066140;28;19928;-69
2022/03/03 10:40:57;;;;;;;;;;;5.60;99.90;;;;;;5053755;28;19927;-68
2022/03/03 10:43:23;;;;;;;;;;;5.70;99.90;;;;;;5067857;28;20143;-69
2022/03/03 10:45:54;;;;;;;;;;;5.80;99.90;;;;;;5073511;28;20204;-68
2022/03/03 10:48:22;;;;;;;;;;;5.90;99.90;;;;;;5067284;28;19933;-69
2022/03/03 10:50:49;;;;;;;;;;;6.10;99.90;;;;;;5058720;28;20208;-68
2022/03/03 10:53:17;;;;;;;;;;;6.20;99.90;;;;;;5062639;28;19979;-69
2022/03/03 10:58:51;;;;;;;;;;;6.50;99.90;;;;;;5140947;27;19982;-69
2022/03/03 11:01:19;;;;;;;;;;;6.70;99.90;;;;;;5105940;27;19947;-69
2022/03/03 11:03:49;;;;;;;;;;;6.80;99.90;;;;;;5118999;28;19942;-69
2022/03/03 11:06:17;;;;;;;;;;;6.90;99.90;;;;;;5118550;28;20080;-69
2022/03/03 11:08:43;;;;;;;;;;;7.00;99.90;;;;;;5129931;28;19926;-69
2022/03/03 11:11:10;;;;;;;;;;;7.10;96.30;;;;;;5117422;27;20242;-69
2022/03/03 11:13:39;;;;;;;;;;;7.30;96.80;;;;;;5105293;28;19920;-69
2022/03/03 11:16:07;;;;;;;;;;;7.40;96.00;;;;;;5118561;28;19920;-69
2022/03/03 11:18:34;;;;;;;;;;;7.50;95.60;;;;;;5115889;28;19920;-69
2022/03/03 11:21:01;;;;;;;;;;;7.60;93.20;;;;;;5121103;28;19987;-69
2022/03/03 11:23:37;;;;;;;;;;;7.70;93.50;;;;;;5121073;28;19926;-71
2022/03/03 11:26:04;;;;;;;;;;;7.80;93.40;;;;;;5115249;28;19920;-70
2022/03/03 11:28:35;;;;;;;;;;;7.90;91.30;;;;;;5100450;28;19921;-69
2022/03/03 11:31:16;;;;;;;;;;;8.00;91.60;;;;;;5115373;28;19927;-70
2022/03/03 11:33:44;;;;;;;;;;;8.10;91.20;;;;;;5120480;27;20230;-70
2022/03/03 11:36:19;;;;;;;;;;;8.20;88.50;;;;;;5119820;28;19928;-71
2022/03/03 11:38:46;;;;;;;;;;;8.30;88.00;;;;;;5120567;28;19960;-69
2022/03/03 11:41:12;;;;;;;;;;;8.30;87.20;;;;;;5118445;28;19924;-69
2022/03/03 11:43:45;;;;;;;;;;;8.30;88.00;;;;;;5122776;28;19926;-70
2022/03/03 11:46:12;;;;;;;;;;;8.50;90.80;;;;;;5111337;28;19927;-69
2022/03/03 11:48:40;;;;;;;;;;;8.50;84.70;;;;;;5118745;28;19920;-69
2022/03/03 11:51:25;;;;;;;;;;;8.40;89.50;;;;;;5117181;28;19939;-69
2022/03/03 11:53:53;;;;;;;;;;;8.50;91.30;;;;;;5111091;28;19919;-69
2022/03/03 11:56:19;;;;;;;;;;;8.50;91.90;;;;;;5116766;28;20162;-69
2022/03/03 11:58:46;;;;;;;;;;;8.60;93.00;;;;;;5133804;28;20119;-73
2022/03/03 12:01:14;;;;;;;;;;;8.70;91.80;;;;;;5140576;28;19920;-71
2022/03/03 12:04:01;;;;;;;;;;;8.60;91.60;;;;;;5129904;28;20111;-72
2022/03/03 12:06:38;;;;;;;;;;;8.50;91.80;;;;;;5136559;28;19941;-71
2022/03/03 12:09:16;;;;;;;;;;;8.60;92.10;;;;;;5125214;28;19919;-71
2022/03/03 12:11:43;;;;;;;;;;;8.70;92.70;;;;;;5126877;28;20207;-69
2022/03/03 12:14:25;;;;;;;;;;;8.90;93.20;;;;;;5109473;28;19927;-70
2022/03/03 12:16:51;;;;;;;;;;;9.00;92.30;;;;;;5105753;28;20134;-70
2022/03/03 12:19:19;;;;;;;;;;;9.00;91.80;;;;;;5115744;28;19920;-70
2022/03/03 12:21:46;;;;;;;;;;;9.00;92.90;;;;;;5106106;28;19924;-70
2022/03/03 12:24:31;;;;;;;;;;;9.10;93.00;;;;;;5123678;28;20101;-69
2022/03/03 12:26:59;;;;;;;;;;;9.30;91.90;;;;;;5126693;28;19919;-70
2022/03/03 12:29:28;;;;;;;;;;;9.30;91.50;;;;;;5110593;28;19920;-71
2022/03/03 12:31:55;;;;;;;;;;;9.40;90.40;;;;;;5110403;27;19920;-70
2022/03/03 12:34:22;;;;;;;;;;;9.40;88.70;;;;;;5134618;27;19958;-70
2022/03/03 12:36:53;;;;;;;;;;;9.30;88.90;;;;;;5118021;27;19919;-70
2022/03/03 12:39:20;;;;;;;;;;;9.50;89.70;;;;;;5116109;27;19920;-68
2022/03/03 12:41:48;;;;;;;;;;;9.70;89.60;;;;;;5121671;27;19958;-67
2022/03/03 12:44:17;;;;;;;;;;;9.80;87.60;;;;;;5125650;27;20127;-67
2022/03/03 12:46:44;;;;;;;;;;;9.80;85.30;;;;;;5111419;28;19920;-72
2022/03/03 12:49:12;;;;;;;;;;;10.10;87.40;;;;;;5105640;28;19920;-68
2022/03/03 12:51:42;;;;;;;;;;;10.20;85.90;;;;;;5104859;28;19969;-67
2022/03/03 12:54:09;;;;;;;;;;;10.30;84.10;;;;;;5114618;28;19928;-67
2022/03/03 12:56:36;;;;;;;;;;;10.20;87.60;;;;;;5122931;28;19982;-67
2022/03/03 12:59:08;;;;;;;;;;;10.10;88.70;;;;;;5105569;28;19920;-67
2022/03/03 13:01:35;;;;;;;;;;;10.20;89.80;;;;;;5105467;28;20011;-67
2022/03/03 13:04:03;;;;;;;;;;;10.30;87.50;;;;;;5114174;28;19927;-67
2022/03/03 13:06:30;;;;;;;;;;;10.40;87.50;;;;;;5124144;28;19926;-68
2022/03/03 13:09:01;;;;;;;;;;;10.50;84.10;;;;;;5124785;28;19927;-67
2022/03/03 13:11:28;;;;;;;;;;;10.60;83.20;;;;;;5108495;28;19920;-67
2022/03/03 13:13:57;;;;;;;;;;;10.60;84.40;;;;;;5104909;28;19955;-71
2022/03/03 13:16:26;;;;;;;;;;;10.80;84.20;;;;;;5123223;28;19926;-67
2022/03/03 13:18:53;;;;;;;;;;;11.10;80.40;;;;;;5111756;28;19991;-71
2022/03/03 13:21:21;;;;;;;;;;;11.30;78.10;;;;;;5115081;28;19919;-69
2022/03/03 13:23:49;;;;;;;;;;;11.60;83.30;;;;;;5125065;28;19920;-70
2022/03/03 13:26:17;;;;;;;;;;;11.80;80.40;;;;;;5124881;28;19961;-69
2022/03/03 13:28:44;;;;;;;;;;;12.00;82.30;;;;;;5115927;28;19920;-70
2022/03/03 13:31:11;;;;;;;;;;;12.20;80.80;;;;;;5124899;28;20218;-72
2022/03/03 13:33:42;;;;;;;;;;;12.30;78.90;;;;;;5121930;28;19926;-69
2022/03/03 13:36:13;;;;;;;;;;;12.10;78.00;;;;;;5119217;28;19926;-70
2022/03/03 13:38:39;;;;;;;;;;;12.20;81.70;;;;;;5124912;28;20003;-70
2022/03/03 13:41:20;;;;;;;;;;;12.30;79.80;;;;;;5124993;28;19949;-69
2022/03/03 13:43:46;;;;;;;;;;;12.30;77.50;;;;;;5125029;28;20266;-69
2022/03/03 13:46:27;;;;;;;;;;;12.40;81.50;;;;;;5120401;28;19919;-69
2022/03/03 13:48:55;;;;;;;;;;;12.40;75.70;;;;;;5118014;28;20263;-69
2022/03/03 13:51:21;;;;;;;;;;;12.10;75.00;;;;;;5124817;28;19920;-69
2022/03/03 13:53:56;;;;;;;;;;;12.10;74.70;;;;;;5125000;28;20088;-69
2022/03/03 13:56:26;;;;;;;;;;;12.30;72.40;;;;;;5111992;28;19942;-68
2022/03/03 13:59:03;;;;;;;;;;;12.60;77.50;;;;;;5103962;28;20235;-70
2022/03/03 14:01:30;;;;;;;;;;;12.80;80.20;;;;;;5109327;27;20119;-69
2022/03/03 14:04:08;;;;;;;;;;;12.90;75.90;;;;;;5121486;28;19986;-69
2022/03/03 14:06:38;;;;;;;;;;;13.10;76.50;;;;;;5117838;28;20215;-70
2022/03/03 14:09:05;;;;;;;;;;;13.00;74.70;;;;;;5104301;28;19987;-69
2022/03/03 14:11:31;;;;;;;;;;;13.00;72.80;;;;;;5120391;27;20217;-71
2022/03/03 14:13:59;;;;;;;;;;;12.90;73.50;;;;;;5124124;28;19979;-71
2022/03/03 14:16:26;;;;;;;;;;;13.00;70.20;;;;;;5124214;28;19927;-69
2022/03/03 14:18:54;;;;;;;;;;;12.90;75.00;;;;;;5126430;27;19942;-70
2022/03/03 14:21:22;;;;;;;;;;;13.00;70.80;;;;;;5118489;28;19920;-70
2022/03/03 14:23:48;;;;;;;;;;;12.90;68.30;;;;;;5129791;27;19926;-70
2022/03/03 14:26:17;;;;;;;;;;;13.00;70.00;;;;;;5120972;28;19920;-70
2022/03/03 14:28:44;;;;;;;;;;;13.10;68.60;;;;;;5124230;28;20215;-69